createdAt,value
2018-08-18T00:00:04.631Z,19.80
2018-08-18T00:02:36.723Z,19.70
2018-08-18T00:05:06.471Z,19.90
2018-08-18T00:07:34.649Z,19.90
2018-08-18T00:10:03.421Z,19.70
2018-08-18T00:12:31.535Z,19.70
2018-08-18T00:14:59.308Z,19.60
2018-08-18T00:17:27.174Z,19.60
2018-08-18T00:19:55.126Z,19.60
2018-08-18T00:22:22.967Z,19.70
2018-08-18T00:24:57.463Z,19.70
2018-08-18T00:27:25.924Z,19.70
2018-08-18T00:29:58.183Z,19.60
2018-08-18T00:32:26.029Z,19.60
2018-08-18T00:34:54.482Z,19.60
2018-08-18T00:37:23.492Z,19.50
2018-08-18T00:39:51.346Z,19.50
2018-08-18T00:42:19.132Z,19.50
2018-08-18T00:44:47.090Z,19.50
2018-08-18T00:47:14.947Z,19.50
2018-08-18T00:49:42.796Z,19.50
2018-08-18T00:52:10.846Z,19.40
2018-08-18T00:54:38.746Z,19.40
2018-08-18T00:57:21.096Z,19.40
2018-08-18T00:59:49.027Z,19.30
2018-08-18T01:02:16.868Z,19.30
2018-08-18T01:04:50.143Z,19.30
2018-08-18T01:07:18.094Z,19.10
2018-08-18T01:09:45.910Z,19.20
2018-08-18T01:12:13.942Z,19.10
2018-08-18T01:14:41.895Z,19.10
2018-08-18T01:17:10.116Z,19.10
2018-08-18T01:19:37.970Z,19.10
2018-08-18T01:22:06.836Z,19.00
2018-08-18T01:24:34.918Z,19.00
2018-08-18T01:27:03.866Z,18.90
2018-08-18T01:29:31.834Z,18.90
2018-08-18T01:31:59.545Z,18.90
2018-08-18T01:34:27.221Z,18.90
2018-08-18T01:36:55.076Z,18.90
2018-08-18T01:39:22.914Z,19.00
2018-08-18T01:41:50.854Z,18.90
2018-08-18T01:44:20.991Z,19.00
2018-08-18T01:46:50.083Z,18.90
2018-08-18T01:49:23.525Z,18.90
2018-08-18T01:51:51.412Z,18.90
2018-08-18T01:54:19.154Z,18.90
2018-08-18T01:56:48.404Z,18.90
2018-08-18T01:59:16.766Z,19.00
2018-08-18T02:01:44.821Z,18.90
2018-08-18T02:04:14.119Z,18.90
2018-08-18T02:06:42.031Z,18.90
2018-08-18T02:09:09.830Z,18.90
2018-08-18T02:11:38.460Z,18.80
2018-08-18T02:14:07.214Z,18.80
2018-08-18T02:16:35.261Z,18.70
2018-08-18T02:19:03.328Z,18.70
2018-08-18T02:21:34.605Z,18.60
2018-08-18T02:24:03.779Z,18.60
2018-08-18T02:26:33.313Z,18.70
2018-08-18T02:29:01.757Z,18.70
2018-08-18T02:31:29.454Z,18.80
2018-08-18T02:33:57.545Z,18.70
2018-08-18T02:36:26.018Z,18.70
2018-08-18T02:38:59.843Z,18.70
2018-08-18T02:41:29.246Z,18.70
2018-08-18T02:43:57.806Z,18.60
2018-08-18T02:46:33.872Z,18.50
2018-08-18T02:49:02.471Z,18.40
2018-08-18T02:51:30.849Z,18.40
2018-08-18T02:53:58.904Z,18.50
2018-08-18T02:56:36.213Z,18.50
2018-08-18T02:59:06.244Z,18.50
2018-08-18T03:01:34.990Z,18.50
2018-08-18T03:04:06.768Z,18.50
2018-08-18T03:06:35.145Z,18.40
2018-08-18T03:09:04.926Z,18.50
2018-08-18T03:11:35.478Z,18.40
2018-08-18T03:14:04.124Z,18.40
2018-08-18T03:16:32.467Z,18.40
2018-08-18T03:19:00.274Z,18.40
2018-08-18T03:21:33.732Z,18.40
2018-08-18T03:24:10.496Z,18.40
2018-08-18T03:26:41.673Z,18.40
2018-08-18T03:29:10.497Z,18.30
2018-08-18T03:31:39.106Z,18.30
2018-08-18T03:34:07.783Z,18.30
2018-08-18T03:36:38.939Z,18.30
2018-08-18T03:39:17.159Z,18.20
2018-08-18T03:41:45.469Z,18.20
2018-08-18T03:44:13.158Z,18.20
2018-08-18T03:46:41.079Z,18.20
2018-08-18T03:49:09.122Z,18.20
2018-08-18T03:51:42.624Z,18.20
2018-08-18T03:54:10.800Z,18.10
2018-08-18T03:56:38.973Z,18.10
2018-08-18T03:59:07.062Z,18.10
2018-08-18T04:01:47.684Z,18.10
2018-08-18T04:04:16.389Z,18.10
2018-08-18T04:06:45.298Z,18.20
2018-08-18T04:09:14.712Z,18.20
2018-08-18T04:11:42.570Z,18.30
2018-08-18T04:14:10.624Z,18.30
2018-08-18T04:16:49.299Z,18.20
2018-08-18T04:19:18.904Z,18.20
2018-08-18T04:21:47.209Z,18.20
2018-08-18T04:24:15.589Z,18.10
2018-08-18T04:26:45.857Z,18.10
2018-08-18T04:29:13.648Z,18.10
2018-08-18T04:31:41.707Z,18.00
2018-08-18T04:34:09.571Z,18.10
2018-08-18T04:36:37.574Z,18.00
2018-08-18T04:39:08.553Z,18.00
2018-08-18T04:41:36.498Z,18.10
2018-08-18T04:44:04.554Z,18.00
2018-08-18T04:46:32.533Z,18.10
2018-08-18T04:49:00.705Z,18.10
2018-08-18T04:51:28.464Z,18.10
2018-08-18T04:53:56.266Z,18.10
2018-08-18T04:56:24.185Z,18.10
2018-08-18T04:58:52.017Z,18.10
2018-08-18T05:01:19.934Z,18.20
2018-08-18T05:03:59.646Z,18.20
2018-08-18T05:06:28.717Z,18.30
2018-08-18T05:08:58.233Z,18.30
2018-08-18T05:11:26.516Z,18.30
2018-08-18T05:13:54.202Z,18.30
2018-08-18T05:16:22.056Z,18.40
2018-08-18T05:18:50.141Z,18.50
2018-08-18T05:21:19.306Z,18.60
2018-08-18T05:23:47.081Z,18.60
2018-08-18T05:26:14.970Z,18.60
2018-08-18T05:28:42.677Z,18.60
2018-08-18T05:31:10.737Z,18.70
2018-08-18T05:33:38.728Z,18.70
2018-08-18T05:36:07.730Z,18.90
2018-08-18T05:38:36.561Z,19.00
2018-08-18T05:41:04.819Z,19.00
2018-08-18T05:43:32.914Z,18.90
2018-08-18T05:46:02.755Z,19.00
2018-08-18T05:48:31.183Z,18.90
2018-08-18T05:50:59.041Z,18.90
2018-08-18T05:53:28.901Z,18.90
2018-08-18T05:55:57.206Z,19.00
2018-08-18T05:58:24.941Z,19.00
2018-08-18T06:00:57.561Z,19.00
2018-08-18T06:03:25.275Z,19.00
2018-08-18T06:05:53.054Z,19.10
2018-08-18T06:08:21.034Z,19.30
2018-08-18T06:10:48.740Z,19.40
2018-08-18T06:13:19.405Z,19.50
2018-08-18T06:16:06.646Z,19.60
2018-08-18T06:18:36.476Z,19.60
2018-08-18T06:21:04.920Z,19.60
2018-08-18T06:23:32.888Z,19.70
2018-08-18T06:26:01.733Z,19.60
2018-08-18T06:28:29.626Z,19.60
2018-08-18T06:30:57.392Z,19.60
2018-08-18T06:33:25.186Z,19.50
2018-08-18T06:35:53.137Z,19.60
2018-08-18T06:38:20.841Z,19.60
2018-08-18T06:40:53.355Z,19.60
2018-08-18T06:43:21.151Z,19.70
2018-08-18T06:45:48.974Z,19.90
2018-08-18T06:48:18.912Z,19.90
2018-08-18T06:50:46.722Z,19.80
2018-08-18T06:53:14.692Z,19.80
2018-08-18T06:55:42.606Z,19.60
2018-08-18T06:58:10.664Z,19.60
2018-08-18T07:00:38.793Z,19.60
2018-08-18T07:03:43.486Z,19.70
2018-08-18T07:06:12.575Z,19.90
2018-08-18T07:08:46.149Z,20.20
2018-08-18T07:11:14.125Z,20.30
2018-08-18T07:13:42.649Z,20.40
2018-08-18T07:16:10.521Z,20.10
2018-08-18T07:18:38.365Z,20.20
2018-08-18T07:21:06.586Z,20.20
2018-08-18T07:23:34.706Z,20.20
2018-08-18T07:26:03.287Z,20.20
2018-08-18T07:28:31.535Z,20.20
2018-08-18T07:31:03.309Z,20.30
2018-08-18T07:33:31.192Z,20.50
2018-08-18T07:35:59.074Z,20.50
2018-08-18T07:38:26.786Z,20.60
2018-08-18T07:40:55.320Z,20.60
2018-08-18T07:43:25.186Z,20.70
2018-08-18T07:45:54.338Z,20.70
2018-08-18T07:48:22.125Z,20.80
2018-08-18T07:50:50.101Z,20.90
2018-08-18T07:53:17.987Z,20.70
2018-08-18T07:55:45.733Z,20.60
2018-08-18T07:58:16.382Z,20.70
2018-08-18T08:00:43.937Z,20.90
2018-08-18T08:03:12.734Z,21.00
2018-08-18T08:05:40.382Z,21.10
2018-08-18T08:08:08.107Z,20.80
2018-08-18T08:10:35.765Z,20.70
2018-08-18T08:13:03.699Z,20.50
2018-08-18T08:15:31.631Z,20.60
2018-08-18T08:17:59.373Z,20.80
2018-08-18T08:20:27.374Z,20.80
2018-08-18T08:22:56.101Z,20.90
2018-08-18T08:25:23.627Z,21.10
2018-08-18T08:27:53.386Z,21.40
2018-08-18T08:30:22.873Z,21.70
2018-08-18T08:32:50.725Z,21.80
2018-08-18T08:35:18.549Z,21.80
2018-08-18T08:40:37.774Z,22.00
2018-08-18T08:43:06.333Z,21.80
2018-08-18T08:45:35.314Z,21.90
2018-08-18T08:48:04.866Z,22.10
2018-08-18T08:50:34.346Z,21.90
2018-08-18T08:53:03.777Z,21.80
2018-08-18T08:55:32.496Z,21.80
2018-08-18T08:58:00.569Z,21.80
2018-08-18T09:00:28.634Z,21.80
2018-08-18T09:02:57.096Z,22.10
2018-08-18T09:05:25.641Z,22.40
2018-08-18T09:07:53.746Z,22.40
2018-08-18T09:10:22.163Z,22.60
2018-08-18T09:12:52.057Z,22.60
2018-08-18T09:15:22.532Z,22.50
2018-08-18T09:17:53.652Z,22.50
2018-08-18T09:20:21.787Z,22.40
2018-08-18T09:22:59.362Z,22.10
2018-08-18T09:25:28.853Z,22.10
2018-08-18T09:28:00.194Z,22.10
2018-08-18T09:30:30.336Z,22.20
2018-08-18T09:33:03.257Z,22.20
2018-08-18T09:35:48.029Z,22.40
2018-08-18T09:38:16.812Z,22.60
2018-08-18T09:40:45.151Z,22.70
2018-08-18T09:43:18.835Z,22.90
2018-08-18T09:45:47.115Z,22.90
2018-08-18T09:48:15.538Z,22.80
2018-08-18T09:50:43.949Z,22.90
2018-08-18T09:53:11.977Z,22.90
2018-08-18T09:55:40.007Z,22.40
2018-08-18T09:58:11.011Z,22.20
2018-08-18T10:00:40.870Z,22.20
2018-08-18T10:03:10.630Z,22.20
2018-08-18T10:05:39.516Z,22.30
2018-08-18T10:08:08.150Z,22.10
2018-08-18T10:10:39.808Z,22.20
2018-08-18T10:13:11.031Z,22.50
2018-08-18T10:15:39.376Z,22.30
2018-08-18T10:18:07.425Z,22.40
2018-08-18T10:20:41.514Z,22.40
2018-08-18T10:23:10.776Z,22.50
2018-08-18T10:25:39.501Z,22.90
2018-08-18T10:28:07.835Z,23.30
2018-08-18T10:30:36.617Z,23.80
2018-08-18T10:33:06.756Z,24.10
2018-08-18T10:35:35.767Z,24.30
2018-08-18T10:38:05.951Z,24.70
2018-08-18T10:40:35.465Z,24.60
2018-08-18T10:43:04.371Z,24.70
2018-08-18T10:45:33.970Z,24.70
2018-08-18T10:48:03.607Z,24.90
2018-08-18T10:50:42.662Z,25.00
2018-08-18T10:53:11.255Z,25.10
2018-08-18T10:55:40.242Z,25.10
2018-08-18T10:58:09.853Z,24.80
2018-08-18T11:00:38.347Z,25.10
2018-08-18T11:03:07.844Z,25.00
2018-08-18T11:05:36.269Z,25.00
2018-08-18T11:08:08.745Z,25.30
2018-08-18T11:10:39.163Z,25.60
2018-08-18T11:13:07.475Z,25.90
2018-08-18T11:15:36.487Z,25.60
2018-08-18T11:18:05.946Z,25.50
2018-08-18T11:20:35.266Z,25.30
2018-08-18T11:23:06.594Z,25.10
2018-08-18T11:28:31.885Z,25.00
2018-08-18T11:31:00.050Z,25.10
2018-08-18T11:33:37.980Z,25.30
2018-08-18T11:36:07.198Z,25.50
2018-08-18T11:38:35.666Z,25.70
2018-08-18T11:41:04.766Z,25.80
2018-08-18T11:43:44.012Z,25.80
2018-08-18T11:46:11.999Z,25.70
2018-08-18T11:48:40.074Z,25.50
2018-08-18T11:51:09.124Z,25.30
2018-08-18T11:53:47.598Z,25.50
2018-08-18T11:56:16.858Z,25.40
2018-08-18T11:58:54.982Z,25.40
2018-08-18T12:01:27.451Z,25.60
2018-08-18T12:03:55.484Z,25.50
2018-08-18T12:06:24.199Z,25.40
2018-08-18T12:08:52.237Z,25.60
2018-08-18T12:11:20.227Z,25.90
2018-08-18T12:13:48.390Z,25.70
2018-08-18T12:16:17.709Z,25.50
2018-08-18T12:18:46.666Z,25.60
2018-08-18T12:21:15.096Z,25.50
2018-08-18T12:23:48.354Z,25.40
2018-08-18T12:26:22.748Z,25.70
2018-08-18T12:28:52.440Z,25.40
2018-08-18T12:31:21.848Z,25.50
2018-08-18T12:33:49.947Z,25.60
2018-08-18T12:36:18.058Z,25.60
2018-08-18T12:38:51.013Z,25.70
2018-08-18T12:41:18.938Z,25.90
2018-08-18T12:43:48.785Z,25.70
2018-08-18T12:46:18.167Z,25.40
2018-08-18T12:48:47.611Z,25.40
2018-08-18T12:51:17.071Z,25.30
2018-08-18T12:53:50.637Z,25.40
2018-08-18T12:56:21.024Z,25.50
2018-08-18T12:58:49.125Z,25.80
2018-08-18T13:01:38.601Z,25.80
2018-08-18T13:04:09.196Z,25.90
2018-08-18T13:06:46.582Z,25.80
2018-08-18T13:09:15.795Z,26.00
2018-08-18T13:11:45.704Z,26.10
2018-08-18T13:14:16.979Z,25.80
2018-08-18T13:16:45.270Z,25.70
2018-08-18T13:19:15.053Z,25.60
2018-08-18T13:21:43.198Z,25.90
2018-08-18T13:24:11.332Z,26.10
2018-08-18T13:26:39.544Z,26.30
2018-08-18T13:29:07.760Z,26.20
2018-08-18T13:31:40.974Z,26.10
2018-08-18T13:34:10.866Z,26.10
2018-08-18T13:36:40.207Z,26.40
2018-08-18T13:39:15.581Z,26.40
2018-08-18T13:41:44.419Z,26.40
2018-08-18T13:44:16.806Z,26.60
2018-08-18T13:46:49.858Z,26.40
2018-08-18T13:49:22.777Z,26.80
2018-08-18T13:51:51.765Z,27.00
2018-08-18T13:54:19.776Z,27.40
2018-08-18T13:56:47.770Z,27.40
2018-08-18T13:59:42.617Z,26.90
2018-08-18T14:02:11.135Z,26.80
2018-08-18T14:04:40.885Z,26.90
2018-08-18T14:07:09.085Z,27.00
2018-08-18T14:09:37.240Z,26.80
2018-08-18T14:12:10.862Z,26.90
2018-08-18T14:14:38.801Z,26.90
2018-08-18T14:17:07.644Z,27.00
2018-08-18T14:19:35.713Z,27.00
2018-08-18T14:22:06.622Z,27.00
2018-08-18T14:24:35.639Z,27.00
2018-08-18T14:27:04.794Z,27.00
2018-08-18T14:29:34.279Z,26.80
2018-08-18T14:32:05.380Z,26.40
2018-08-18T14:34:33.674Z,26.30
2018-08-18T14:37:06.982Z,26.40
2018-08-18T14:39:38.148Z,26.40
2018-08-18T14:42:06.443Z,26.60
2018-08-18T14:44:35.598Z,26.50
2018-08-18T14:47:04.479Z,26.80
2018-08-18T14:52:16.082Z,26.60
2018-08-18T14:54:43.657Z,26.60
2018-08-18T14:57:12.288Z,26.30
2018-08-18T14:59:40.056Z,26.30
2018-08-18T15:02:08.563Z,26.40
2018-08-18T15:04:36.483Z,26.80
2018-08-18T15:07:04.752Z,27.00
2018-08-18T15:09:42.740Z,26.80
2018-08-18T15:12:10.848Z,26.80
2018-08-18T15:14:38.767Z,26.80
2018-08-18T15:17:06.753Z,26.80
2018-08-18T15:19:34.923Z,26.90
2018-08-18T15:22:09.002Z,26.90
2018-08-18T15:24:37.030Z,26.80
2018-08-18T15:27:05.211Z,26.90
2018-08-18T15:29:34.431Z,26.90
2018-08-18T15:32:02.322Z,27.00
2018-08-18T15:34:30.174Z,27.10
2018-08-18T15:36:58.145Z,27.20
2018-08-18T15:39:27.539Z,27.10
2018-08-18T15:41:57.309Z,27.10
2018-08-18T15:44:25.158Z,26.90
2018-08-18T15:46:52.898Z,26.80
2018-08-18T15:49:20.693Z,26.90
2018-08-18T15:51:48.453Z,26.90
2018-08-18T15:54:16.274Z,26.70
2018-08-18T15:56:44.065Z,26.60
2018-08-18T15:59:12.873Z,26.80
2018-08-18T16:01:41.078Z,27.00
2018-08-18T16:04:09.121Z,27.00
2018-08-18T16:06:37.109Z,27.00
2018-08-18T16:09:07.512Z,27.00
2018-08-18T16:11:35.498Z,27.10
2018-08-18T16:14:03.829Z,27.00
2018-08-18T16:16:32.290Z,26.80
2018-08-18T16:19:05.860Z,26.80
2018-08-18T16:21:34.255Z,26.60
2018-08-18T16:24:02.421Z,26.60
2018-08-18T16:26:30.311Z,26.60
2018-08-18T16:28:58.050Z,26.60
2018-08-18T16:31:25.889Z,26.50
2018-08-18T16:33:53.798Z,26.50
2018-08-18T16:36:21.820Z,26.40
2018-08-18T16:38:49.612Z,26.20
2018-08-18T16:41:17.521Z,26.20
2018-08-18T16:43:45.435Z,26.10
2018-08-18T16:46:22.435Z,25.90
2018-08-18T16:48:51.135Z,25.90
2018-08-18T16:51:19.391Z,25.80
2018-08-18T16:53:47.655Z,25.90
2018-08-18T16:56:22.026Z,25.90
2018-08-18T16:58:51.882Z,25.50
2018-08-18T17:01:20.068Z,25.40
2018-08-18T17:03:47.901Z,25.40
2018-08-18T17:06:15.701Z,25.50
2018-08-18T17:08:43.443Z,25.50
2018-08-18T17:11:11.452Z,25.40
2018-08-18T17:13:39.344Z,25.40
2018-08-18T17:16:07.322Z,25.30
2018-08-18T17:18:35.511Z,25.10
2018-08-18T17:21:06.675Z,25.00
2018-08-18T17:23:36.670Z,25.00
2018-08-18T17:26:04.587Z,24.80
2018-08-18T17:28:34.851Z,24.70
2018-08-18T17:31:05.392Z,24.70
2018-08-18T17:33:34.359Z,24.60
2018-08-18T17:36:03.331Z,24.50
2018-08-18T17:38:31.896Z,24.40
2018-08-18T17:40:59.985Z,24.40
2018-08-18T17:43:27.928Z,24.30
2018-08-18T17:45:56.911Z,24.20
2018-08-18T17:48:26.238Z,24.10
2018-08-18T17:50:54.637Z,24.00
2018-08-18T17:53:22.749Z,24.00
2018-08-18T17:56:07.462Z,23.90
2018-08-18T17:58:36.250Z,23.80
2018-08-18T18:01:06.639Z,23.80
2018-08-18T18:03:35.476Z,23.70
2018-08-18T18:06:04.679Z,23.60
2018-08-18T18:08:33.467Z,23.60
2018-08-18T18:11:02.811Z,23.50
2018-08-18T18:13:31.092Z,23.40
2018-08-18T18:15:59.201Z,23.40
2018-08-18T18:18:33.351Z,23.30
2018-08-18T18:21:02.419Z,23.30
2018-08-18T18:23:30.438Z,23.10
2018-08-18T18:25:58.747Z,23.10
2018-08-18T18:28:26.591Z,23.00
2018-08-18T18:30:54.519Z,22.90
2018-08-18T18:33:22.516Z,22.90
2018-08-18T18:35:50.855Z,22.90
2018-08-18T18:38:19.017Z,22.80
2018-08-18T18:40:47.772Z,22.80
2018-08-18T18:43:15.758Z,22.70
2018-08-18T18:45:44.020Z,22.60
2018-08-18T18:48:14.135Z,22.60
2018-08-18T18:50:46.761Z,22.60
2018-08-18T18:53:14.769Z,22.50
2018-08-18T18:55:48.311Z,22.50
2018-08-18T18:58:16.088Z,22.40
2018-08-18T19:00:48.310Z,22.40
2018-08-18T19:03:16.048Z,22.30
2018-08-18T19:05:46.831Z,22.30
2018-08-18T19:08:16.414Z,22.20
2018-08-18T19:10:44.291Z,22.20
2018-08-18T19:13:12.322Z,22.10
2018-08-18T19:15:40.289Z,22.10
2018-08-18T19:18:09.648Z,22.00
2018-08-18T19:20:38.010Z,22.00
2018-08-18T19:23:12.060Z,21.80
2018-08-18T19:25:41.193Z,21.90
2018-08-18T19:28:16.045Z,21.80
2018-08-18T19:30:44.020Z,21.80
2018-08-18T19:33:13.122Z,21.80
2018-08-18T19:35:42.264Z,21.80
2018-08-18T19:38:10.830Z,21.70
2018-08-18T19:40:40.139Z,21.70
2018-08-18T19:43:13.385Z,21.70
2018-08-18T19:45:41.507Z,21.60
2018-08-18T19:48:09.924Z,21.50
2018-08-18T19:50:49.237Z,21.60
2018-08-18T19:53:18.046Z,21.40
2018-08-18T19:55:45.883Z,21.50
2018-08-18T19:58:13.957Z,21.40
2018-08-18T20:00:41.901Z,21.40
2018-08-18T20:03:13.961Z,21.40
2018-08-18T20:05:41.869Z,21.30
2018-08-18T20:08:09.872Z,21.30
2018-08-18T20:11:09.461Z,21.20
2018-08-18T20:13:37.312Z,21.20
2018-08-18T20:16:05.694Z,21.20
2018-08-18T20:18:34.765Z,21.20
2018-08-18T20:21:03.546Z,21.20
2018-08-18T20:23:31.500Z,21.10
2018-08-18T20:26:00.698Z,21.10
2018-08-18T20:28:28.556Z,21.00
2018-08-18T20:30:56.461Z,21.00
2018-08-18T20:33:24.523Z,21.00
2018-08-18T20:35:52.776Z,20.90
2018-08-18T20:38:21.569Z,20.80
2018-08-18T20:40:49.501Z,20.80
2018-08-18T20:43:17.532Z,20.70
2018-08-18T20:45:48.108Z,20.70
2018-08-18T20:48:18.626Z,20.60
2018-08-18T20:50:46.891Z,20.60
2018-08-18T20:53:15.841Z,20.50
2018-08-18T20:55:46.129Z,20.50
2018-08-18T20:58:14.161Z,20.40
2018-08-18T21:00:42.070Z,20.40
2018-08-18T21:03:10.061Z,20.30
2018-08-18T21:05:38.024Z,20.30
2018-08-18T21:08:14.440Z,20.30
2018-08-18T21:10:42.343Z,20.30
2018-08-18T21:13:10.241Z,20.30
2018-08-18T21:15:38.228Z,20.20
2018-08-18T21:18:11.499Z,20.20
2018-08-18T21:20:39.562Z,20.10
2018-08-18T21:23:07.453Z,20.10
2018-08-18T21:25:48.387Z,20.00
2018-08-18T21:28:17.300Z,20.00
2018-08-18T21:30:44.987Z,20.00
2018-08-18T21:33:12.820Z,19.90
2018-08-18T21:35:40.701Z,19.80
2018-08-18T21:38:08.734Z,19.80
2018-08-18T21:40:36.625Z,19.70
2018-08-18T21:43:05.091Z,19.70
2018-08-18T21:45:38.689Z,19.70
2018-08-18T21:48:06.972Z,19.70
2018-08-18T21:50:34.941Z,19.60
2018-08-18T21:53:03.094Z,19.70
2018-08-18T21:55:31.026Z,19.60
2018-08-18T21:57:59.192Z,19.60
2018-08-18T22:00:32.584Z,19.50
2018-08-18T22:03:00.432Z,19.50
2018-08-18T22:05:30.666Z,19.50
2018-08-18T22:07:58.832Z,19.50
2018-08-18T22:10:26.587Z,19.40
2018-08-18T22:12:54.290Z,19.30
2018-08-18T22:15:22.341Z,19.30
2018-08-18T22:17:51.202Z,19.20
2018-08-18T22:20:20.261Z,19.30
2018-08-18T22:22:48.207Z,19.20
2018-08-18T22:25:15.997Z,19.20
2018-08-18T22:27:44.148Z,19.10
2018-08-18T22:30:14.121Z,19.00
2018-08-18T22:32:42.927Z,19.00
2018-08-18T22:35:11.478Z,18.90
2018-08-18T22:37:39.810Z,18.90
2018-08-18T22:40:08.436Z,18.90
2018-08-18T22:42:36.303Z,18.90
2018-08-18T22:45:15.769Z,18.80
2018-08-18T22:47:44.641Z,18.80
2018-08-18T22:50:12.740Z,18.80
2018-08-18T22:52:42.907Z,18.80
2018-08-18T22:55:10.844Z,18.70
2018-08-18T22:57:40.614Z,18.70
2018-08-18T23:00:08.902Z,18.60
2018-08-18T23:02:37.238Z,18.60
2018-08-18T23:05:05.217Z,18.50
2018-08-18T23:07:33.078Z,18.50
2018-08-18T23:10:00.816Z,18.50
2018-08-18T23:12:28.655Z,18.50
2018-08-18T23:14:56.446Z,18.50
2018-08-18T23:17:24.101Z,18.40
2018-08-18T23:19:51.933Z,18.40
2018-08-18T23:22:31.134Z,18.40
2018-08-18T23:24:58.930Z,18.50
2018-08-18T23:27:27.486Z,18.50
2018-08-18T23:29:55.398Z,18.40
2018-08-18T23:32:24.534Z,18.30
2018-08-18T23:34:53.425Z,18.30
2018-08-18T23:37:21.535Z,18.20
2018-08-18T23:39:52.342Z,18.10
2018-08-18T23:42:22.521Z,18.10
2018-08-18T23:44:50.361Z,18.00
2018-08-18T23:47:18.702Z,17.90
2018-08-18T23:49:46.885Z,17.90
2018-08-18T23:52:14.720Z,17.90
2018-08-18T23:54:42.677Z,17.90
2018-08-18T23:57:10.614Z,17.80
2018-08-18T23:59:38.380Z,17.80
